sensor_id;sensor_type;location;lat;lon;timestamp;temperature;humidity
65854;DHT22;52627;48.838;2.402;2024-03-17T00:00:49;13.93;65.52
65854;DHT22;52627;48.838;2.402;2024-03-17T00:03:17;13.92;65.54
65854;DHT22;52627;48.838;2.402;2024-03-17T00:05:45;13.90;65.68
65854;DHT22;52627;48.838;2.402;2024-03-17T00:08:12;13.89;65.71
65854;DHT22;52627;48.838;2.402;2024-03-17T00:10:39;13.87;65.80
65854;DHT22;52627;48.838;2.402;2024-03-17T00:13:07;13.85;65.89
65854;DHT22;52627;48.838;2.402;2024-03-17T00:15:34;13.84;65.94
65854;DHT22;52627;48.838;2.402;2024-03-17T00:18:02;13.83;65.99
65854;DHT22;52627;48.838;2.402;2024-03-17T00:20:29;13.82;66.08
65854;DHT22;52627;48.838;2.402;2024-03-17T00:22:59;13.79;66.18
65854;DHT22;52627;48.838;2.402;2024-03-17T00:25:26;13.77;66.25
65854;DHT22;52627;48.838;2.402;2024-03-17T00:27:53;13.73;66.30
65854;DHT22;52627;48.838;2.402;2024-03-17T00:30:24;13.71;66.36
65854;DHT22;52627;48.838;2.402;2024-03-17T00:32:51;13.68;66.39
65854;DHT22;52627;48.838;2.402;2024-03-17T00:35:19;13.67;66.50
65854;DHT22;52627;48.838;2.402;2024-03-17T00:37:49;13.64;66.55
65854;DHT22;52627;48.838;2.402;2024-03-17T00:40:18;13.62;66.62
65854;DHT22;52627;48.838;2.402;2024-03-17T00:42:45;13.59;66.73
65854;DHT22;52627;48.838;2.402;2024-03-17T00:45:13;13.57;66.86
65854;DHT22;52627;48.838;2.402;2024-03-17T00:47:42;13.53;66.96
65854;DHT22;52627;48.838;2.402;2024-03-17T00:50:10;13.49;67.09
65854;DHT22;52627;48.838;2.402;2024-03-17T00:52:38;13.44;67.19
65854;DHT22;52627;48.838;2.402;2024-03-17T00:55:06;13.40;67.20
65854;DHT22;52627;48.838;2.402;2024-03-17T00:57:34;13.37;67.21
65854;DHT22;52627;48.838;2.402;2024-03-17T01:00:01;13.36;67.24
65854;DHT22;52627;48.838;2.402;2024-03-17T01:02:29;13.35;67.20
65854;DHT22;52627;48.838;2.402;2024-03-17T01:04:57;13.34;67.29
65854;DHT22;52627;48.838;2.402;2024-03-17T01:07:24;13.33;67.38
65854;DHT22;52627;48.838;2.402;2024-03-17T01:09:52;13.33;67.45
65854;DHT22;52627;48.838;2.402;2024-03-17T01:12:21;13.31;67.50
65854;DHT22;52627;48.838;2.402;2024-03-17T01:14:48;13.30;67.50
65854;DHT22;52627;48.838;2.402;2024-03-17T01:17:16;13.29;67.59
65854;DHT22;52627;48.838;2.402;2024-03-17T01:19:46;13.26;67.67
65854;DHT22;52627;48.838;2.402;2024-03-17T01:22:13;13.24;67.77
65854;DHT22;52627;48.838;2.402;2024-03-17T01:24:40;13.23;67.79
65854;DHT22;52627;48.838;2.402;2024-03-17T01:27:12;13.20;67.90
65854;DHT22;52627;48.838;2.402;2024-03-17T01:29:43;13.19;67.96
65854;DHT22;52627;48.838;2.402;2024-03-17T01:32:10;13.16;68.00
65854;DHT22;52627;48.838;2.402;2024-03-17T01:34:38;13.16;68.05
65854;DHT22;52627;48.838;2.402;2024-03-17T01:37:05;13.15;68.10
65854;DHT22;52627;48.838;2.402;2024-03-17T01:39:33;13.14;68.16
65854;DHT22;52627;48.838;2.402;2024-03-17T01:42:01;13.11;68.24
65854;DHT22;52627;48.838;2.402;2024-03-17T01:44:29;13.07;68.31
65854;DHT22;52627;48.838;2.402;2024-03-17T01:46:58;13.06;68.39
65854;DHT22;52627;48.838;2.402;2024-03-17T01:49:25;13.02;68.41
65854;DHT22;52627;48.838;2.402;2024-03-17T01:51:53;13.01;68.48
65854;DHT22;52627;48.838;2.402;2024-03-17T01:54:22;12.99;68.53
65854;DHT22;52627;48.838;2.402;2024-03-17T01:56:50;12.95;68.62
65854;DHT22;52627;48.838;2.402;2024-03-17T01:59:17;12.94;68.70
65854;DHT22;52627;48.838;2.402;2024-03-17T02:01:44;12.90;68.74
65854;DHT22;52627;48.838;2.402;2024-03-17T02:04:12;12.87;68.81
65854;DHT22;52627;48.838;2.402;2024-03-17T02:06:40;12.85;68.88
65854;DHT22;52627;48.838;2.402;2024-03-17T02:09:08;12.84;68.83
65854;DHT22;52627;48.838;2.402;2024-03-17T02:11:36;12.84;68.90
65854;DHT22;52627;48.838;2.402;2024-03-17T02:14:04;12.84;68.90
65854;DHT22;52627;48.838;2.402;2024-03-17T02:16:33;12.83;68.95
65854;DHT22;52627;48.838;2.402;2024-03-17T02:19:00;12.83;69.01
65854;DHT22;52627;48.838;2.402;2024-03-17T02:21:28;12.82;69.04
65854;DHT22;52627;48.838;2.402;2024-03-17T02:23:56;12.83;69.06
65854;DHT22;52627;48.838;2.402;2024-03-17T02:26:24;12.82;69.04
65854;DHT22;52627;48.838;2.402;2024-03-17T02:28:53;12.82;69.10
65854;DHT22;52627;48.838;2.402;2024-03-17T02:31:20;12.82;69.10
65854;DHT22;52627;48.838;2.402;2024-03-17T02:33:49;12.81;69.11
65854;DHT22;52627;48.838;2.402;2024-03-17T02:36:16;12.79;69.16
65854;DHT22;52627;48.838;2.402;2024-03-17T02:38:44;12.76;69.20
65854;DHT22;52627;48.838;2.402;2024-03-17T02:41:30;12.76;69.27
65854;DHT22;52627;48.838;2.402;2024-03-17T02:43:57;12.74;69.30
65854;DHT22;52627;48.838;2.402;2024-03-17T02:46:25;12.73;69.31
65854;DHT22;52627;48.838;2.402;2024-03-17T02:48:53;12.71;69.33
65854;DHT22;52627;48.838;2.402;2024-03-17T02:51:21;12.70;69.32
65854;DHT22;52627;48.838;2.402;2024-03-17T02:53:49;12.69;69.37
65854;DHT22;52627;48.838;2.402;2024-03-17T02:56:17;12.66;69.44
65854;DHT22;52627;48.838;2.402;2024-03-17T02:58:46;12.62;69.51
65854;DHT22;52627;48.838;2.402;2024-03-17T03:01:15;12.56;69.56
65854;DHT22;52627;48.838;2.402;2024-03-17T03:03:43;12.53;69.60
65854;DHT22;52627;48.838;2.402;2024-03-17T03:06:10;12.51;69.64
65854;DHT22;52627;48.838;2.402;2024-03-17T03:08:40;12.48;69.70
65854;DHT22;52627;48.838;2.402;2024-03-17T03:11:09;12.46;69.77
65854;DHT22;52627;48.838;2.402;2024-03-17T03:13:39;12.44;69.80
65854;DHT22;52627;48.838;2.402;2024-03-17T03:16:08;12.41;69.85
65854;DHT22;52627;48.838;2.402;2024-03-17T03:18:38;12.38;69.96
65854;DHT22;52627;48.838;2.402;2024-03-17T03:21:06;12.36;70.03
65854;DHT22;52627;48.838;2.402;2024-03-17T03:23:34;12.34;70.11
65854;DHT22;52627;48.838;2.402;2024-03-17T03:26:01;12.33;70.17
65854;DHT22;52627;48.838;2.402;2024-03-17T03:28:33;12.33;70.20
65854;DHT22;52627;48.838;2.402;2024-03-17T03:31:00;12.35;70.24
65854;DHT22;52627;48.838;2.402;2024-03-17T03:33:29;12.36;70.31
65854;DHT22;52627;48.838;2.402;2024-03-17T03:35:56;12.36;70.42
65854;DHT22;52627;48.838;2.402;2024-03-17T03:38:24;12.37;70.49
65854;DHT22;52627;48.838;2.402;2024-03-17T03:40:52;12.38;70.51
65854;DHT22;52627;48.838;2.402;2024-03-17T03:43:19;12.40;70.58
65854;DHT22;52627;48.838;2.402;2024-03-17T03:45:47;12.40;70.68
65854;DHT22;52627;48.838;2.402;2024-03-17T03:48:14;12.42;70.75
65854;DHT22;52627;48.838;2.402;2024-03-17T03:50:41;12.42;70.80
65854;DHT22;52627;48.838;2.402;2024-03-17T03:53:10;12.43;70.86
65854;DHT22;52627;48.838;2.402;2024-03-17T03:55:38;12.43;70.90
65854;DHT22;52627;48.838;2.402;2024-03-17T03:58:06;12.44;70.93
65854;DHT22;52627;48.838;2.402;2024-03-17T04:00:33;12.45;71.00
65854;DHT22;52627;48.838;2.402;2024-03-17T04:03:01;12.46;71.09
65854;DHT22;52627;48.838;2.402;2024-03-17T04:05:28;12.47;71.11
65854;DHT22;52627;48.838;2.402;2024-03-17T04:07:56;12.47;71.22
65854;DHT22;52627;48.838;2.402;2024-03-17T04:10:24;12.48;71.24
65854;DHT22;52627;48.838;2.402;2024-03-17T04:12:52;12.48;71.32
65854;DHT22;52627;48.838;2.402;2024-03-17T04:15:20;12.47;71.36
65854;DHT22;52627;48.838;2.402;2024-03-17T04:17:48;12.47;71.49
65854;DHT22;52627;48.838;2.402;2024-03-17T04:20:15;12.47;71.58
65854;DHT22;52627;48.838;2.402;2024-03-17T04:22:43;12.47;71.65
65854;DHT22;52627;48.838;2.402;2024-03-17T04:25:11;12.47;71.77
65854;DHT22;52627;48.838;2.402;2024-03-17T04:27:40;12.46;71.83
65854;DHT22;52627;48.838;2.402;2024-03-17T04:30:08;12.46;71.89
65854;DHT22;52627;48.838;2.402;2024-03-17T04:32:38;12.46;71.97
65854;DHT22;52627;48.838;2.402;2024-03-17T04:35:06;12.44;72.04
65854;DHT22;52627;48.838;2.402;2024-03-17T04:37:34;12.44;72.17
65854;DHT22;52627;48.838;2.402;2024-03-17T04:40:06;12.43;72.27
65854;DHT22;52627;48.838;2.402;2024-03-17T04:42:36;12.43;72.33
65854;DHT22;52627;48.838;2.402;2024-03-17T04:45:06;12.42;72.47
65854;DHT22;52627;48.838;2.402;2024-03-17T04:47:36;12.42;72.57
65854;DHT22;52627;48.838;2.402;2024-03-17T04:50:04;12.41;72.63
65854;DHT22;52627;48.838;2.402;2024-03-17T04:52:32;12.41;72.70
65854;DHT22;52627;48.838;2.402;2024-03-17T04:55:00;12.40;72.75
65854;DHT22;52627;48.838;2.402;2024-03-17T04:57:27;12.39;72.89
65854;DHT22;52627;48.838;2.402;2024-03-17T04:59:54;12.38;72.98
65854;DHT22;52627;48.838;2.402;2024-03-17T05:02:22;12.38;73.08
65854;DHT22;52627;48.838;2.402;2024-03-17T05:04:50;12.37;73.14
65854;DHT22;52627;48.838;2.402;2024-03-17T05:07:17;12.36;73.22
65854;DHT22;52627;48.838;2.402;2024-03-17T05:09:45;12.36;73.30
65854;DHT22;52627;48.838;2.402;2024-03-17T05:12:12;12.36;73.36
65854;DHT22;52627;48.838;2.402;2024-03-17T05:14:40;12.35;73.49
65854;DHT22;52627;48.838;2.402;2024-03-17T05:17:07;12.34;73.55
65854;DHT22;52627;48.838;2.402;2024-03-17T05:19:34;12.33;73.63
65854;DHT22;52627;48.838;2.402;2024-03-17T05:22:02;12.32;73.73
65854;DHT22;52627;48.838;2.402;2024-03-17T05:24:29;12.31;73.81
65854;DHT22;52627;48.838;2.402;2024-03-17T05:26:56;12.30;73.90
65854;DHT22;52627;48.838;2.402;2024-03-17T05:29:24;12.29;73.94
65854;DHT22;52627;48.838;2.402;2024-03-17T05:31:51;12.28;74.02
65854;DHT22;52627;48.838;2.402;2024-03-17T05:34:22;12.26;74.12
65854;DHT22;52627;48.838;2.402;2024-03-17T05:36:51;12.24;74.20
65854;DHT22;52627;48.838;2.402;2024-03-17T05:39:18;12.23;74.27
65854;DHT22;52627;48.838;2.402;2024-03-17T05:41:47;12.23;74.34
65854;DHT22;52627;48.838;2.402;2024-03-17T05:44:15;12.21;74.45
65854;DHT22;52627;48.838;2.402;2024-03-17T05:46:44;12.19;74.58
65854;DHT22;52627;48.838;2.402;2024-03-17T05:49:11;12.17;74.68
65854;DHT22;52627;48.838;2.402;2024-03-17T05:51:39;12.15;74.77
65854;DHT22;52627;48.838;2.402;2024-03-17T05:54:07;12.14;74.93
65854;DHT22;52627;48.838;2.402;2024-03-17T05:56:35;12.12;75.07
65854;DHT22;52627;48.838;2.402;2024-03-17T05:59:02;12.10;75.15
65854;DHT22;52627;48.838;2.402;2024-03-17T06:01:29;12.09;75.25
65854;DHT22;52627;48.838;2.402;2024-03-17T06:03:57;12.08;75.33
65854;DHT22;52627;48.838;2.402;2024-03-17T06:06:24;12.05;75.45
65854;DHT22;52627;48.838;2.402;2024-03-17T06:08:51;12.04;75.55
65854;DHT22;52627;48.838;2.402;2024-03-17T06:11:19;12.02;75.66
65854;DHT22;52627;48.838;2.402;2024-03-17T06:13:46;12.02;75.76
65854;DHT22;52627;48.838;2.402;2024-03-17T06:16:14;12.01;75.86
65854;DHT22;52627;48.838;2.402;2024-03-17T06:18:41;12.00;75.96
65854;DHT22;52627;48.838;2.402;2024-03-17T06:21:08;12.00;76.07
65854;DHT22;52627;48.838;2.402;2024-03-17T06:23:36;12.00;76.19
65854;DHT22;52627;48.838;2.402;2024-03-17T06:26:04;12.01;76.28
65854;DHT22;52627;48.838;2.402;2024-03-17T06:28:32;12.01;76.32
65854;DHT22;52627;48.838;2.402;2024-03-17T06:31:00;12.02;76.40
65854;DHT22;52627;48.838;2.402;2024-03-17T06:33:30;12.02;76.48
65854;DHT22;52627;48.838;2.402;2024-03-17T06:36:02;12.02;76.53
65854;DHT22;52627;48.838;2.402;2024-03-17T06:38:31;12.03;76.60
65854;DHT22;52627;48.838;2.402;2024-03-17T06:41:00;12.05;76.68
65854;DHT22;52627;48.838;2.402;2024-03-17T06:43:28;12.06;76.70
65854;DHT22;52627;48.838;2.402;2024-03-17T06:45:59;12.04;76.78
65854;DHT22;52627;48.838;2.402;2024-03-17T06:48:28;12.03;76.87
65854;DHT22;52627;48.838;2.402;2024-03-17T06:50:56;12.02;76.90
65854;DHT22;52627;48.838;2.402;2024-03-17T06:53:23;12.03;76.98
65854;DHT22;52627;48.838;2.402;2024-03-17T06:58:22;12.02;77.10
65854;DHT22;52627;48.838;2.402;2024-03-17T07:03:26;12.00;77.30
65854;DHT22;52627;48.838;2.402;2024-03-17T07:05:58;12.00;77.38
65854;DHT22;52627;48.838;2.402;2024-03-17T07:08:31;11.98;77.43
65854;DHT22;52627;48.838;2.402;2024-03-17T07:11:02;11.98;77.55
65854;DHT22;52627;48.838;2.402;2024-03-17T07:13:33;11.96;77.64
65854;DHT22;52627;48.838;2.402;2024-03-17T07:16:04;11.96;77.72
65854;DHT22;52627;48.838;2.402;2024-03-17T07:18:33;11.94;77.80
65854;DHT22;52627;48.838;2.402;2024-03-17T07:21:03;11.94;77.89
65854;DHT22;52627;48.838;2.402;2024-03-17T07:23:31;11.93;78.00
65854;DHT22;52627;48.838;2.402;2024-03-17T07:26:00;11.91;78.04
65854;DHT22;52627;48.838;2.402;2024-03-17T07:28:29;11.90;78.09
65854;DHT22;52627;48.838;2.402;2024-03-17T07:30:58;11.89;78.17
65854;DHT22;52627;48.838;2.402;2024-03-17T07:33:29;11.88;78.26
65854;DHT22;52627;48.838;2.402;2024-03-17T07:35:57;11.89;78.36
65854;DHT22;52627;48.838;2.402;2024-03-17T07:38:28;11.89;78.44
65854;DHT22;52627;48.838;2.402;2024-03-17T07:43:33;11.94;78.56
65854;DHT22;52627;48.838;2.402;2024-03-17T07:46:10;11.96;78.60
65854;DHT22;52627;48.838;2.402;2024-03-17T07:48:39;11.98;78.68
65854;DHT22;52627;48.838;2.402;2024-03-17T07:51:09;11.99;78.70
65854;DHT22;52627;48.838;2.402;2024-03-17T07:53:40;12.01;78.76
65854;DHT22;52627;48.838;2.402;2024-03-17T07:56:12;12.04;78.85
65854;DHT22;52627;48.838;2.402;2024-03-17T07:58:43;12.07;78.90
65854;DHT22;52627;48.838;2.402;2024-03-17T08:01:12;12.09;78.94
65854;DHT22;52627;48.838;2.402;2024-03-17T08:03:41;12.10;79.02
65854;DHT22;52627;48.838;2.402;2024-03-17T08:06:12;12.12;79.10
65854;DHT22;52627;48.838;2.402;2024-03-17T08:08:39;12.11;79.12
65854;DHT22;52627;48.838;2.402;2024-03-17T08:11:07;12.16;79.20
65854;DHT22;52627;48.838;2.402;2024-03-17T08:13:35;12.21;79.25
65854;DHT22;52627;48.838;2.402;2024-03-17T08:16:06;12.25;79.33
65854;DHT22;52627;48.838;2.402;2024-03-17T08:18:37;12.29;79.40
65854;DHT22;52627;48.838;2.402;2024-03-17T08:21:04;12.33;79.46
65854;DHT22;52627;48.838;2.402;2024-03-17T08:23:33;12.34;79.50
65854;DHT22;52627;48.838;2.402;2024-03-17T08:26:06;12.33;79.56
65854;DHT22;52627;48.838;2.402;2024-03-17T08:28:33;12.34;79.62
65854;DHT22;52627;48.838;2.402;2024-03-17T08:31:01;12.36;79.69
65854;DHT22;52627;48.838;2.402;2024-03-17T08:33:30;12.39;79.70
65854;DHT22;52627;48.838;2.402;2024-03-17T08:36:00;12.42;79.70
65854;DHT22;52627;48.838;2.402;2024-03-17T08:38:33;12.44;79.71
65854;DHT22;52627;48.838;2.402;2024-03-17T08:41:05;12.49;79.74
65854;DHT22;52627;48.838;2.402;2024-03-17T08:43:35;12.52;79.77
65854;DHT22;52627;48.838;2.402;2024-03-17T08:46:05;12.56;79.80
65854;DHT22;52627;48.838;2.402;2024-03-17T08:48:36;12.60;79.83
65854;DHT22;52627;48.838;2.402;2024-03-17T08:51:06;12.66;79.89
65854;DHT22;52627;48.838;2.402;2024-03-17T08:53:35;12.70;79.90
65854;DHT22;52627;48.838;2.402;2024-03-17T08:56:04;12.72;79.86
65854;DHT22;52627;48.838;2.402;2024-03-17T08:58:33;12.73;79.88
65854;DHT22;52627;48.838;2.402;2024-03-17T09:01:04;12.73;79.85
65854;DHT22;52627;48.838;2.402;2024-03-17T09:03:34;12.73;79.92
65854;DHT22;52627;48.838;2.402;2024-03-17T09:06:02;12.75;79.94
65854;DHT22;52627;48.838;2.402;2024-03-17T09:08:30;12.77;80.00
65854;DHT22;52627;48.838;2.402;2024-03-17T09:11:00;12.79;80.00
65854;DHT22;52627;48.838;2.402;2024-03-17T09:13:27;12.81;80.08
65854;DHT22;52627;48.838;2.402;2024-03-17T09:15:58;12.85;80.10
65854;DHT22;52627;48.838;2.402;2024-03-17T09:18:27;12.87;80.11
65854;DHT22;52627;48.838;2.402;2024-03-17T09:21:00;12.89;80.13
65854;DHT22;52627;48.838;2.402;2024-03-17T09:23:30;12.90;80.16
65854;DHT22;52627;48.838;2.402;2024-03-17T09:26:05;12.91;80.20
65854;DHT22;52627;48.838;2.402;2024-03-17T09:28:43;12.95;80.21
65854;DHT22;52627;48.838;2.402;2024-03-17T09:31:10;12.98;80.27
65854;DHT22;52627;48.838;2.402;2024-03-17T09:33:39;13.01;80.29
65854;DHT22;52627;48.838;2.402;2024-03-17T09:36:07;13.06;80.30
65854;DHT22;52627;48.838;2.402;2024-03-17T09:38:37;13.11;80.33
65854;DHT22;52627;48.838;2.402;2024-03-17T09:41:08;13.13;80.30
65854;DHT22;52627;48.838;2.402;2024-03-17T09:43:54;13.15;80.31
65854;DHT22;52627;48.838;2.402;2024-03-17T09:46:25;13.20;80.39
65854;DHT22;52627;48.838;2.402;2024-03-17T09:48:54;13.23;80.40
65854;DHT22;52627;48.838;2.402;2024-03-17T09:51:25;13.25;80.41
65854;DHT22;52627;48.838;2.402;2024-03-17T09:53:52;13.27;80.42
65854;DHT22;52627;48.838;2.402;2024-03-17T09:56:20;13.32;80.58
65854;DHT22;52627;48.838;2.402;2024-03-17T09:58:49;13.35;80.82
65854;DHT22;52627;48.838;2.402;2024-03-17T10:01:18;13.37;80.94
65854;DHT22;52627;48.838;2.402;2024-03-17T10:06:31;13.43;81.15
65854;DHT22;52627;48.838;2.402;2024-03-17T10:09:01;13.44;81.20
65854;DHT22;52627;48.838;2.402;2024-03-17T10:11:35;13.45;81.27
65854;DHT22;52627;48.838;2.402;2024-03-17T10:14:07;13.44;81.28
65854;DHT22;52627;48.838;2.402;2024-03-17T10:16:36;13.43;81.30
65854;DHT22;52627;48.838;2.402;2024-03-17T10:19:06;13.40;81.23
65854;DHT22;52627;48.838;2.402;2024-03-17T10:21:42;13.39;81.26
65854;DHT22;52627;48.838;2.402;2024-03-17T10:24:14;13.37;81.21
65854;DHT22;52627;48.838;2.402;2024-03-17T10:26:58;13.35;81.24
65854;DHT22;52627;48.838;2.402;2024-03-17T10:29:27;13.35;81.29
65854;DHT22;52627;48.838;2.402;2024-03-17T10:32:01;13.33;81.31
65854;DHT22;52627;48.838;2.402;2024-03-17T10:34:31;13.34;81.37
65854;DHT22;52627;48.838;2.402;2024-03-17T10:37:18;13.34;81.40
65854;DHT22;52627;48.838;2.402;2024-03-17T10:39:52;13.32;81.41
65854;DHT22;52627;48.838;2.402;2024-03-17T10:42:27;13.31;81.49
65854;DHT22;52627;48.838;2.402;2024-03-17T10:44:55;13.29;81.57
65854;DHT22;52627;48.838;2.402;2024-03-17T10:47:25;13.29;81.60
65854;DHT22;52627;48.838;2.402;2024-03-17T10:49:54;13.30;81.71
65854;DHT22;52627;48.838;2.402;2024-03-17T10:52:23;13.29;81.78
65854;DHT22;52627;48.838;2.402;2024-03-17T10:55:10;13.27;81.85
65854;DHT22;52627;48.838;2.402;2024-03-17T10:57:47;13.27;81.90
65854;DHT22;52627;48.838;2.402;2024-03-17T11:00:18;13.24;81.93
65854;DHT22;52627;48.838;2.402;2024-03-17T11:02:49;13.22;82.02
65854;DHT22;52627;48.838;2.402;2024-03-17T11:05:22;13.21;82.10
65854;DHT22;52627;48.838;2.402;2024-03-17T11:07:52;13.23;82.16
65854;DHT22;52627;48.838;2.402;2024-03-17T11:10:26;13.22;82.21
65854;DHT22;52627;48.838;2.402;2024-03-17T11:12:59;13.25;82.28
65854;DHT22;52627;48.838;2.402;2024-03-17T11:20:35;13.33;82.41
65854;DHT22;52627;48.838;2.402;2024-03-17T11:23:06;13.39;82.49
65854;DHT22;52627;48.838;2.402;2024-03-17T11:28:03;13.51;82.50
65854;DHT22;52627;48.838;2.402;2024-03-17T11:38:50;13.71;82.50
65854;DHT22;52627;48.838;2.402;2024-03-17T11:46:55;13.86;82.58
65854;DHT22;52627;48.838;2.402;2024-03-17T11:49:36;13.89;82.50
65854;DHT22;52627;48.838;2.402;2024-03-17T11:52:13;13.90;82.47
65854;DHT22;52627;48.838;2.402;2024-03-17T11:54:43;13.90;82.43
65854;DHT22;52627;48.838;2.402;2024-03-17T11:57:14;13.93;82.47
65854;DHT22;52627;48.838;2.402;2024-03-17T11:59:51;13.94;82.45
65854;DHT22;52627;48.838;2.402;2024-03-17T12:02:22;13.92;82.41
65854;DHT22;52627;48.838;2.402;2024-03-17T12:04:53;13.92;82.48
65854;DHT22;52627;48.838;2.402;2024-03-17T12:07:24;13.90;82.50
65854;DHT22;52627;48.838;2.402;2024-03-17T12:09:54;13.89;82.51
65854;DHT22;52627;48.838;2.402;2024-03-17T12:12:24;13.88;82.55
65854;DHT22;52627;48.838;2.402;2024-03-17T12:15:03;13.88;82.60
65854;DHT22;52627;48.838;2.402;2024-03-17T12:17:44;13.86;82.63
65854;DHT22;52627;48.838;2.402;2024-03-17T12:20:18;13.86;82.70
65854;DHT22;52627;48.838;2.402;2024-03-17T12:22:47;13.87;82.70
65854;DHT22;52627;48.838;2.402;2024-03-17T12:25:16;13.86;82.72
65854;DHT22;52627;48.838;2.402;2024-03-17T12:27:50;13.81;82.76
65854;DHT22;52627;48.838;2.402;2024-03-17T12:30:17;13.80;82.79
65854;DHT22;52627;48.838;2.402;2024-03-17T12:32:45;13.78;82.80
65854;DHT22;52627;48.838;2.402;2024-03-17T12:35:14;13.76;82.85
65854;DHT22;52627;48.838;2.402;2024-03-17T12:37:44;13.73;82.90
65854;DHT22;52627;48.838;2.402;2024-03-17T12:40:19;13.70;82.91
65854;DHT22;52627;48.838;2.402;2024-03-17T12:42:51;13.68;83.04
65854;DHT22;52627;48.838;2.402;2024-03-17T12:45:19;13.68;83.10
65854;DHT22;52627;48.838;2.402;2024-03-17T12:47:49;13.67;83.10
65854;DHT22;52627;48.838;2.402;2024-03-17T12:50:19;13.66;83.15
65854;DHT22;52627;48.838;2.402;2024-03-17T12:52:53;13.66;83.20
65854;DHT22;52627;48.838;2.402;2024-03-17T12:55:24;13.67;83.20
65854;DHT22;52627;48.838;2.402;2024-03-17T12:58:11;13.68;83.20
65854;DHT22;52627;48.838;2.402;2024-03-17T13:03:35;13.70;83.22
65854;DHT22;52627;48.838;2.402;2024-03-17T13:06:08;13.72;83.22
65854;DHT22;52627;48.838;2.402;2024-03-17T13:08:37;13.71;83.22
65854;DHT22;52627;48.838;2.402;2024-03-17T13:11:06;13.71;83.28
65854;DHT22;52627;48.838;2.402;2024-03-17T13:13:36;13.71;83.30
65854;DHT22;52627;48.838;2.402;2024-03-17T13:16:07;13.73;83.32
65854;DHT22;52627;48.838;2.402;2024-03-17T13:18:36;13.78;83.39
65854;DHT22;52627;48.838;2.402;2024-03-17T13:21:03;13.85;83.40
65854;DHT22;52627;48.838;2.402;2024-03-17T13:23:31;13.91;83.38
65854;DHT22;52627;48.838;2.402;2024-03-17T13:25:58;13.99;83.38
65854;DHT22;52627;48.838;2.402;2024-03-17T13:28:25;14.05;83.39
65854;DHT22;52627;48.838;2.402;2024-03-17T13:30:53;14.11;83.39
65854;DHT22;52627;48.838;2.402;2024-03-17T13:33:21;14.16;83.35
65854;DHT22;52627;48.838;2.402;2024-03-17T13:35:48;14.19;83.31
65854;DHT22;52627;48.838;2.402;2024-03-17T13:38:15;14.20;83.30
65854;DHT22;52627;48.838;2.402;2024-03-17T13:40:43;14.22;83.30
65854;DHT22;52627;48.838;2.402;2024-03-17T13:43:14;14.25;83.29
65854;DHT22;52627;48.838;2.402;2024-03-17T13:45:42;14.30;83.22
65854;DHT22;52627;48.838;2.402;2024-03-17T13:48:10;14.34;83.20
65854;DHT22;52627;48.838;2.402;2024-03-17T13:50:38;14.36;83.20
65854;DHT22;52627;48.838;2.402;2024-03-17T13:53:09;14.41;83.20
65854;DHT22;52627;48.838;2.402;2024-03-17T13:55:36;14.47;83.20
65854;DHT22;52627;48.838;2.402;2024-03-17T13:58:04;14.51;83.19
65854;DHT22;52627;48.838;2.402;2024-03-17T14:00:32;14.54;83.11
65854;DHT22;52627;48.838;2.402;2024-03-17T14:03:06;14.58;83.10
65854;DHT22;52627;48.838;2.402;2024-03-17T14:05:35;14.60;83.09
65854;DHT22;52627;48.838;2.402;2024-03-17T14:08:03;14.64;83.09
65854;DHT22;52627;48.838;2.402;2024-03-17T14:10:31;14.67;83.09
65854;DHT22;52627;48.838;2.402;2024-03-17T14:12:59;14.72;83.03
65854;DHT22;52627;48.838;2.402;2024-03-17T14:15:26;14.76;83.00
65854;DHT22;52627;48.838;2.402;2024-03-17T14:17:54;14.82;83.00
65854;DHT22;52627;48.838;2.402;2024-03-17T14:20:21;14.85;83.00
65854;DHT22;52627;48.838;2.402;2024-03-17T14:22:49;14.91;82.99
65854;DHT22;52627;48.838;2.402;2024-03-17T14:25:24;14.96;82.90
65854;DHT22;52627;48.838;2.402;2024-03-17T14:27:52;15.00;82.90
65854;DHT22;52627;48.838;2.402;2024-03-17T14:30:20;15.03;82.88
65854;DHT22;52627;48.838;2.402;2024-03-17T14:32:47;15.05;82.81
65854;DHT22;52627;48.838;2.402;2024-03-17T14:35:15;15.08;82.80
65854;DHT22;52627;48.838;2.402;2024-03-17T14:37:44;15.09;82.76
65854;DHT22;52627;48.838;2.402;2024-03-17T14:40:15;15.12;82.72
65854;DHT22;52627;48.838;2.402;2024-03-17T14:42:48;15.15;82.68
65854;DHT22;52627;48.838;2.402;2024-03-17T14:45:17;15.16;82.63
65854;DHT22;52627;48.838;2.402;2024-03-17T14:47:46;15.18;82.62
65854;DHT22;52627;48.838;2.402;2024-03-17T14:50:13;15.20;82.60
65854;DHT22;52627;48.838;2.402;2024-03-17T14:52:41;15.21;82.54
65854;DHT22;52627;48.838;2.402;2024-03-17T14:55:09;15.23;82.53
65854;DHT22;52627;48.838;2.402;2024-03-17T14:57:37;15.25;82.51
65854;DHT22;52627;48.838;2.402;2024-03-17T15:00:12;15.27;82.50
65854;DHT22;52627;48.838;2.402;2024-03-17T15:02:44;15.28;82.47
65854;DHT22;52627;48.838;2.402;2024-03-17T15:05:14;15.29;82.43
65854;DHT22;52627;48.838;2.402;2024-03-17T15:07:42;15.30;82.42
65854;DHT22;52627;48.838;2.402;2024-03-17T15:10:09;15.32;82.40
65854;DHT22;52627;48.838;2.402;2024-03-17T15:12:39;15.33;82.40
65854;DHT22;52627;48.838;2.402;2024-03-17T15:15:07;15.36;82.40
65854;DHT22;52627;48.838;2.402;2024-03-17T15:17:37;15.38;82.40
65854;DHT22;52627;48.838;2.402;2024-03-17T15:20:05;15.40;82.36
65854;DHT22;52627;48.838;2.402;2024-03-17T15:22:49;15.41;82.30
65854;DHT22;52627;48.838;2.402;2024-03-17T15:25:16;15.41;82.30
65854;DHT22;52627;48.838;2.402;2024-03-17T15:27:44;15.43;82.30
65854;DHT22;52627;48.838;2.402;2024-03-17T15:30:13;15.43;82.23
65854;DHT22;52627;48.838;2.402;2024-03-17T15:32:48;15.46;82.20
65854;DHT22;52627;48.838;2.402;2024-03-17T15:35:16;15.48;82.22
65854;DHT22;52627;48.838;2.402;2024-03-17T15:37:44;15.51;82.21
65854;DHT22;52627;48.838;2.402;2024-03-17T15:40:11;15.53;82.20
65854;DHT22;52627;48.838;2.402;2024-03-17T15:42:45;15.57;82.20
65854;DHT22;52627;48.838;2.402;2024-03-17T15:45:14;15.59;82.20
65854;DHT22;52627;48.838;2.402;2024-03-17T15:47:45;15.62;82.18
65854;DHT22;52627;48.838;2.402;2024-03-17T15:50:13;15.64;82.15
65854;DHT22;52627;48.838;2.402;2024-03-17T15:52:40;15.65;82.09
65854;DHT22;52627;48.838;2.402;2024-03-17T15:55:09;15.68;82.10
65854;DHT22;52627;48.838;2.402;2024-03-17T15:57:37;15.70;82.03
65854;DHT22;52627;48.838;2.402;2024-03-17T16:00:05;15.76;82.00
65854;DHT22;52627;48.838;2.402;2024-03-17T16:02:36;15.80;82.04
65854;DHT22;52627;48.838;2.402;2024-03-17T16:05:05;15.83;81.95
65854;DHT22;52627;48.838;2.402;2024-03-17T16:07:38;15.86;81.93
65854;DHT22;52627;48.838;2.402;2024-03-17T16:10:06;15.87;81.90
65854;DHT22;52627;48.838;2.402;2024-03-17T16:12:42;15.90;81.83
65854;DHT22;52627;48.838;2.402;2024-03-17T16:15:09;15.92;81.79
65854;DHT22;52627;48.838;2.402;2024-03-17T16:17:38;15.95;81.71